createdAt,value
2022-09-17T00:01:42.739Z,56.48
2022-09-17T00:04:12.042Z,56.40
2022-09-17T00:06:41.736Z,56.49
2022-09-17T00:09:10.640Z,56.32
2022-09-17T00:11:42.038Z,56.44
2022-09-17T00:14:17.153Z,56.26
2022-09-17T00:16:47.786Z,56.14
2022-09-17T00:19:19.131Z,56.21
2022-09-17T00:21:48.914Z,56.11
2022-09-17T00:24:19.078Z,56.05
2022-09-17T00:26:47.987Z,55.86
2022-09-17T00:29:16.690Z,55.99
2022-09-17T00:31:45.029Z,56.31
2022-09-17T00:34:13.350Z,56.12
2022-09-17T00:36:41.895Z,56.11
2022-09-17T00:39:15.581Z,56.16
2022-09-17T00:41:44.732Z,56.08
2022-09-17T00:44:44.716Z,55.87
2022-09-17T00:47:20.919Z,56.02
2022-09-17T00:49:53.147Z,55.92
2022-09-17T00:52:26.399Z,55.95
2022-09-17T00:55:02.668Z,55.69
2022-09-17T00:57:32.398Z,55.75
2022-09-17T01:00:00.691Z,55.95
2022-09-17T01:02:29.122Z,55.96
2022-09-17T01:04:57.401Z,55.99
2022-09-17T01:07:48.029Z,55.88
2022-09-17T01:11:14.775Z,55.95
2022-09-17T01:14:00.465Z,56.09
2022-09-17T01:16:36.267Z,56.06
2022-09-17T01:19:30.471Z,55.89
2022-09-17T01:22:05.271Z,55.76
2022-09-17T01:24:50.749Z,55.62
2022-09-17T01:27:56.310Z,55.63
2022-09-17T01:30:38.762Z,55.61
2022-09-17T01:33:16.412Z,55.72
2022-09-17T01:35:54.131Z,55.67
2022-09-17T01:38:30.164Z,55.56
2022-09-17T01:41:06.641Z,55.37
2022-09-17T01:43:43.771Z,55.42
2022-09-17T01:46:20.793Z,55.25
2022-09-17T01:48:53.517Z,55.08
2022-09-17T01:51:25.841Z,55.07
2022-09-17T01:54:00.575Z,54.89
2022-09-17T01:56:34.745Z,54.51
2022-09-17T01:59:09.052Z,54.47
2022-09-17T02:01:42.655Z,54.40
2022-09-17T02:04:16.110Z,54.25
2022-09-17T02:06:49.270Z,54.15
2022-09-17T02:09:22.478Z,54.04
2022-09-17T02:11:55.958Z,53.86
2022-09-17T02:14:28.803Z,53.87
2022-09-17T02:17:06.130Z,53.87
2022-09-17T02:19:38.143Z,53.69
2022-09-17T02:22:17.326Z,53.81
2022-09-17T02:24:55.149Z,53.81
2022-09-17T02:27:36.068Z,53.88
2022-09-17T02:30:05.554Z,53.92
2022-09-17T02:32:35.344Z,53.62
2022-09-17T02:35:03.624Z,53.72
2022-09-17T02:37:31.862Z,53.67
2022-09-17T02:40:00.292Z,53.56
2022-09-17T02:42:43.175Z,53.41
2022-09-17T02:45:22.828Z,53.32
2022-09-17T02:48:18.205Z,53.23
2022-09-17T02:51:15.326Z,53.26
2022-09-17T02:53:56.854Z,53.30
2022-09-17T02:56:35.172Z,53.24
2022-09-17T02:59:16.964Z,53.16
2022-09-17T03:01:49.614Z,53.21
2022-09-17T03:04:22.481Z,53.33
2022-09-17T03:06:53.256Z,53.35
2022-09-17T03:09:21.461Z,53.33
2022-09-17T03:11:49.838Z,53.24
2022-09-17T03:14:20.689Z,53.33
2022-09-17T03:16:49.130Z,53.38
2022-09-17T03:19:18.661Z,53.30
2022-09-17T03:21:46.900Z,53.45
2022-09-17T03:24:15.090Z,53.38
2022-09-17T03:26:43.922Z,53.57
2022-09-17T03:29:12.131Z,53.55
2022-09-17T03:31:40.462Z,53.57
2022-09-17T03:34:08.847Z,53.48
2022-09-17T03:36:38.451Z,53.47
2022-09-17T03:39:07.020Z,53.79
2022-09-17T03:41:35.213Z,53.67
2022-09-17T03:44:04.366Z,53.61
2022-09-17T03:46:32.764Z,53.72
2022-09-17T03:49:01.239Z,53.83
2022-09-17T03:51:29.499Z,53.65
2022-09-17T03:53:59.166Z,53.91
2022-09-17T03:56:27.781Z,53.77
2022-09-17T03:59:00.174Z,53.89
2022-09-17T04:01:30.213Z,54.12
2022-09-17T04:03:58.551Z,54.08
2022-09-17T04:06:26.840Z,54.25
2022-09-17T04:08:55.119Z,54.31
2022-09-17T04:11:24.918Z,54.38
2022-09-17T04:13:53.133Z,54.37
2022-09-17T04:16:21.376Z,54.50
2022-09-17T04:18:49.706Z,54.19
2022-09-17T04:21:17.933Z,54.24
2022-09-17T04:23:46.120Z,54.22
2022-09-17T04:26:14.611Z,54.40
2022-09-17T04:28:44.215Z,54.67
2022-09-17T04:31:12.446Z,54.45
2022-09-17T04:33:40.661Z,54.23
2022-09-17T04:36:08.921Z,54.27
2022-09-17T04:38:37.161Z,54.30
2022-09-17T04:41:07.954Z,54.22
2022-09-17T04:43:36.247Z,54.21
2022-09-17T04:46:06.314Z,54.15
2022-09-17T04:48:34.566Z,54.21
2022-09-17T04:51:02.746Z,54.09
2022-09-17T04:53:30.951Z,53.83
2022-09-17T04:55:59.247Z,53.89
2022-09-17T04:58:27.500Z,53.93
2022-09-17T05:00:55.735Z,54.03
2022-09-17T05:03:25.439Z,54.19
2022-09-17T05:05:53.690Z,54.19
2022-09-17T05:08:23.900Z,54.58
2022-09-17T05:10:52.549Z,54.53
2022-09-17T05:13:20.773Z,54.53
2022-09-17T05:15:49.164Z,54.62
2022-09-17T05:18:17.444Z,54.45
2022-09-17T05:20:46.990Z,54.71
2022-09-17T05:23:15.209Z,54.56
2022-09-17T05:25:43.420Z,54.61
2022-09-17T05:28:11.627Z,54.57
2022-09-17T05:30:39.843Z,54.52
2022-09-17T05:33:08.374Z,54.47
2022-09-17T05:35:37.006Z,54.39
2022-09-17T05:38:07.654Z,54.57
2022-09-17T05:40:37.606Z,54.37
2022-09-17T05:43:08.190Z,54.40
2022-09-17T05:45:37.551Z,54.20
2022-09-17T05:48:14.714Z,54.11
2022-09-17T05:50:43.324Z,54.26
2022-09-17T05:53:15.298Z,54.39
2022-09-17T05:55:43.802Z,54.17
2022-09-17T05:58:13.557Z,54.11
2022-09-17T06:00:42.691Z,53.72
2022-09-17T06:03:13.007Z,53.84
2022-09-17T06:05:41.340Z,54.01
2022-09-17T06:08:09.875Z,53.42
2022-09-17T06:10:40.188Z,53.40
2022-09-17T06:13:08.562Z,53.70
2022-09-17T06:15:36.825Z,53.79
2022-09-17T06:18:05.215Z,53.91
2022-09-17T06:20:33.846Z,53.78
2022-09-17T06:23:02.030Z,54.16
2022-09-17T06:25:31.770Z,54.17
2022-09-17T06:28:04.005Z,54.25
2022-09-17T06:30:32.209Z,54.07
2022-09-17T06:33:02.587Z,53.97
2022-09-17T06:35:31.199Z,54.09
2022-09-17T06:37:59.392Z,54.00
2022-09-17T06:40:27.754Z,53.46
2022-09-17T06:43:00.060Z,53.64
2022-09-17T06:45:28.898Z,53.54
2022-09-17T06:47:57.454Z,53.56
2022-09-17T06:50:26.090Z,53.62
2022-09-17T06:52:55.773Z,53.63
2022-09-17T06:55:24.102Z,53.65
2022-09-17T06:57:52.326Z,53.22
2022-09-17T07:00:22.168Z,53.24
2022-09-17T07:02:57.781Z,53.10
2022-09-17T07:05:26.650Z,52.99
2022-09-17T07:07:55.315Z,52.72
2022-09-17T07:10:24.395Z,52.87
2022-09-17T07:12:52.615Z,52.62
2022-09-17T07:15:22.762Z,53.06
2022-09-17T07:17:51.521Z,52.71
2022-09-17T07:20:19.935Z,52.99
2022-09-17T07:22:56.322Z,52.93
2022-09-17T07:25:24.848Z,52.66
2022-09-17T07:27:53.119Z,52.42
2022-09-17T07:30:22.934Z,52.33
2022-09-17T07:32:51.221Z,52.29
2022-09-17T07:35:19.408Z,52.03
2022-09-17T07:37:47.872Z,52.08
2022-09-17T07:40:16.310Z,51.85
2022-09-17T07:42:44.571Z,51.58
2022-09-17T07:45:12.793Z,51.86
2022-09-17T07:47:44.308Z,51.78
2022-09-17T07:50:12.568Z,52.39
2022-09-17T07:52:46.998Z,51.95
2022-09-17T07:55:15.941Z,51.65
2022-09-17T07:57:44.187Z,51.70
2022-09-17T08:00:14.872Z,51.59
2022-09-17T08:02:44.598Z,51.69
2022-09-17T08:05:12.938Z,51.02
2022-09-17T08:07:41.185Z,51.02
2022-09-17T08:10:10.620Z,50.90
2022-09-17T08:12:38.903Z,50.88
2022-09-17T08:15:08.656Z,50.77
2022-09-17T08:17:38.033Z,51.20
2022-09-17T08:20:09.481Z,51.20
2022-09-17T08:22:37.701Z,51.14
2022-09-17T08:25:06.968Z,51.03
2022-09-17T08:27:35.283Z,50.88
2022-09-17T08:30:03.541Z,50.71
2022-09-17T08:32:32.039Z,50.57
2022-09-17T08:35:00.307Z,50.73
2022-09-17T08:37:41.319Z,50.91
2022-09-17T08:40:16.701Z,51.30
2022-09-17T08:42:56.605Z,51.60
2022-09-17T08:45:26.396Z,51.81
2022-09-17T08:47:57.361Z,52.35
2022-09-17T08:50:32.181Z,52.38
2022-09-17T08:53:18.964Z,52.55
2022-09-17T08:55:53.219Z,52.81
2022-09-17T08:59:09.091Z,52.73
2022-09-17T09:01:44.921Z,52.99
2022-09-17T09:04:56.998Z,53.22
2022-09-17T09:07:28.962Z,53.81
2022-09-17T09:10:13.499Z,53.87
2022-09-17T09:12:43.091Z,54.16
2022-09-17T09:15:30.322Z,54.41
2022-09-17T09:18:03.166Z,54.66
2022-09-17T09:20:42.606Z,54.78
2022-09-17T09:23:19.997Z,55.02
2022-09-17T09:26:04.494Z,54.91
2022-09-17T09:28:55.732Z,54.86
2022-09-17T09:31:40.244Z,54.78
2022-09-17T09:34:10.465Z,54.78
2022-09-17T09:36:40.491Z,54.66
2022-09-17T09:39:19.309Z,54.71
2022-09-17T09:41:54.480Z,54.48
2022-09-17T09:44:26.431Z,54.69
2022-09-17T09:47:19.974Z,54.82
2022-09-17T09:50:06.655Z,55.00
2022-09-17T09:52:52.785Z,55.15
2022-09-17T09:55:49.274Z,55.29
2022-09-17T09:58:30.339Z,55.39
2022-09-17T10:00:58.560Z,55.13
2022-09-17T10:03:32.186Z,54.95
2022-09-17T10:06:04.039Z,54.69
2022-09-17T10:08:36.418Z,54.74
2022-09-17T10:11:07.724Z,54.54
2022-09-17T10:13:38.764Z,54.83
2022-09-17T10:16:19.960Z,54.71
2022-09-17T10:18:49.841Z,54.42
2022-09-17T10:21:24.202Z,54.44
2022-09-17T10:23:52.579Z,54.17
2022-09-17T10:26:27.252Z,54.17
2022-09-17T10:29:00.183Z,54.23
2022-09-17T10:31:28.469Z,54.01
2022-09-17T10:34:02.584Z,54.05
2022-09-17T10:36:41.306Z,54.04
2022-09-17T10:39:32.593Z,54.21
2022-09-17T10:42:02.503Z,54.36
2022-09-17T10:44:34.710Z,54.94
2022-09-17T10:47:13.296Z,55.11
2022-09-17T10:49:44.576Z,55.33
2022-09-17T10:52:23.247Z,55.68
2022-09-17T10:55:23.956Z,55.69
2022-09-17T10:58:15.716Z,55.71
2022-09-17T11:01:00.165Z,55.84
2022-09-17T11:03:52.763Z,56.65
2022-09-17T11:06:54.677Z,56.64
2022-09-17T11:09:37.235Z,56.82
2022-09-17T11:12:25.591Z,56.85
2022-09-17T11:15:02.244Z,57.21
2022-09-17T11:18:01.153Z,57.27
2022-09-17T11:20:58.502Z,57.52
2022-09-17T11:24:03.005Z,57.11
2022-09-17T11:26:38.876Z,57.43
2022-09-17T11:29:27.925Z,57.07
2022-09-17T11:32:05.481Z,56.79
2022-09-17T11:34:39.175Z,56.60
2022-09-17T11:37:13.462Z,56.49
2022-09-17T11:39:48.714Z,56.40
2022-09-17T11:42:24.216Z,56.32
2022-09-17T11:44:56.245Z,56.30
2022-09-17T11:47:31.963Z,56.18
2022-09-17T11:50:07.684Z,55.98
2022-09-17T11:52:41.681Z,55.18
2022-09-17T11:55:22.719Z,55.21
2022-09-17T11:57:56.101Z,54.92
2022-09-17T12:00:24.442Z,54.25
2022-09-17T12:02:59.729Z,53.89
2022-09-17T12:05:35.663Z,54.08
2022-09-17T12:08:15.097Z,54.51
2022-09-17T12:10:50.186Z,54.87
2022-09-17T12:13:29.460Z,55.11
2022-09-17T12:16:11.820Z,55.02
2022-09-17T12:19:02.046Z,54.40
2022-09-17T12:21:38.944Z,53.98
2022-09-17T12:24:16.799Z,53.52
2022-09-17T12:27:17.731Z,53.34
2022-09-17T12:30:12.625Z,52.43
2022-09-17T12:33:14.571Z,52.33
2022-09-17T12:36:23.665Z,52.20
2022-09-17T12:39:55.905Z,52.14
2022-09-17T12:42:56.205Z,51.80
2022-09-17T12:46:00.691Z,52.00
2022-09-17T12:49:05.759Z,52.63
2022-09-17T12:51:54.719Z,52.00
2022-09-17T12:54:46.368Z,52.52
2022-09-17T12:57:30.160Z,52.41
2022-09-17T13:00:07.681Z,51.64
2022-09-17T13:02:42.367Z,51.45
2022-09-17T13:06:06.189Z,51.34
2022-09-17T13:09:06.174Z,51.00
2022-09-17T13:12:11.680Z,50.91
2022-09-17T13:15:35.424Z,50.78
2022-09-17T13:18:30.872Z,50.46
2022-09-17T13:21:05.643Z,49.46
2022-09-17T13:23:43.450Z,49.35
2022-09-17T13:26:17.007Z,48.78
2022-09-17T13:28:48.763Z,48.54
2022-09-17T13:31:23.176Z,48.29
2022-09-17T13:34:00.083Z,47.86
2022-09-17T13:36:49.366Z,47.85
2022-09-17T13:39:41.337Z,47.58
2022-09-17T13:42:17.622Z,47.51
2022-09-17T13:44:51.427Z,47.04
2022-09-17T13:47:25.770Z,47.23
2022-09-17T13:49:59.797Z,48.64
2022-09-17T13:52:37.440Z,50.10
2022-09-17T13:55:08.466Z,50.04
2022-09-17T13:57:50.499Z,50.77
2022-09-17T14:00:54.192Z,50.61
2022-09-17T14:03:53.147Z,50.70
2022-09-17T14:06:53.578Z,50.30
2022-09-17T14:09:54.351Z,49.83
2022-09-17T14:12:58.236Z,48.35
2022-09-17T14:16:02.522Z,48.15
2022-09-17T14:18:58.894Z,47.27
2022-09-17T14:21:33.494Z,46.88
2022-09-17T14:24:05.009Z,46.34
2022-09-17T14:27:14.483Z,45.39
2022-09-17T14:30:17.623Z,45.34
2022-09-17T14:32:55.418Z,45.66
2022-09-17T14:35:31.131Z,45.35
2022-09-17T14:38:03.589Z,45.65
2022-09-17T14:40:37.177Z,46.21
2022-09-17T14:43:05.484Z,46.21
2022-09-17T14:45:38.118Z,45.69
2022-09-17T14:48:37.818Z,46.45
2022-09-17T14:51:32.879Z,46.87
2022-09-17T14:54:22.619Z,47.01
2022-09-17T14:57:02.434Z,47.21
2022-09-17T14:59:49.323Z,46.66
2022-09-17T15:02:33.379Z,46.58
2022-09-17T15:05:04.256Z,47.33
2022-09-17T15:07:32.462Z,47.19
2022-09-17T15:10:15.242Z,47.88
2022-09-17T15:12:45.822Z,47.64
2022-09-17T15:15:21.676Z,47.74
2022-09-17T15:17:52.078Z,47.69
2022-09-17T15:20:24.886Z,47.52
2022-09-17T15:23:04.251Z,47.57
2022-09-17T15:25:33.340Z,47.84
2022-09-17T15:28:12.571Z,48.15
2022-09-17T15:30:40.978Z,48.14
2022-09-17T15:33:13.466Z,48.26
2022-09-17T15:35:43.312Z,48.17
2022-09-17T15:38:25.865Z,48.44
2022-09-17T15:40:54.670Z,48.34
2022-09-17T15:43:29.345Z,48.04
2022-09-17T15:45:59.149Z,48.20
2022-09-17T15:48:39.555Z,48.34
2022-09-17T15:51:26.281Z,48.30
2022-09-17T15:53:57.651Z,48.45
2022-09-17T15:56:29.636Z,48.67
2022-09-17T15:59:03.168Z,48.62
2022-09-17T16:01:55.623Z,48.97
2022-09-17T16:04:33.902Z,49.54
2022-09-17T16:07:30.272Z,49.46
2022-09-17T16:09:59.385Z,49.17
2022-09-17T16:12:29.848Z,48.98
2022-09-17T16:15:00.799Z,48.79
2022-09-17T16:17:42.694Z,48.87
2022-09-17T16:20:17.204Z,48.86
2022-09-17T16:22:48.186Z,48.79
2022-09-17T16:25:18.055Z,48.94
2022-09-17T16:27:51.393Z,48.94
2022-09-17T16:30:22.763Z,48.78
2022-09-17T16:32:51.143Z,48.90
2022-09-17T16:35:22.422Z,48.88
2022-09-17T16:37:54.299Z,48.97
2022-09-17T16:40:27.966Z,49.19
2022-09-17T16:42:57.091Z,49.32
2022-09-17T16:45:28.847Z,49.51
2022-09-17T16:47:57.629Z,49.73
2022-09-17T16:50:26.070Z,49.83
2022-09-17T16:52:55.734Z,50.11
2022-09-17T16:55:24.060Z,50.07
2022-09-17T16:57:52.647Z,50.51
2022-09-17T17:00:22.615Z,50.64
2022-09-17T17:02:56.918Z,50.65
2022-09-17T17:05:27.202Z,50.75
2022-09-17T17:07:57.594Z,50.94
2022-09-17T17:10:27.528Z,51.00
2022-09-17T17:12:56.188Z,50.97
2022-09-17T17:15:24.669Z,51.22
2022-09-17T17:17:53.249Z,51.03
2022-09-17T17:20:21.690Z,51.02
2022-09-17T17:22:50.684Z,51.17
2022-09-17T17:25:20.601Z,51.25
2022-09-17T17:27:48.852Z,51.22
2022-09-17T17:30:18.377Z,51.34
2022-09-17T17:32:51.211Z,51.38
2022-09-17T17:35:20.111Z,51.42
2022-09-17T17:37:48.734Z,51.41
2022-09-17T17:40:17.201Z,51.35
2022-09-17T17:42:47.524Z,51.35
2022-09-17T17:45:16.013Z,51.14
2022-09-17T17:47:44.321Z,51.30
2022-09-17T17:50:12.521Z,51.13
2022-09-17T17:52:43.460Z,51.21
2022-09-17T17:55:11.883Z,51.31
2022-09-17T17:57:40.191Z,51.28
2022-09-17T18:00:11.996Z,51.37
2022-09-17T18:02:40.574Z,51.29
2022-09-17T18:05:11.652Z,51.37
2022-09-17T18:07:40.111Z,51.55
2022-09-17T18:10:09.268Z,51.55
2022-09-17T18:12:37.920Z,51.57
2022-09-17T18:15:07.467Z,51.65
2022-09-17T18:17:37.083Z,51.51
2022-09-17T18:20:06.429Z,51.60
2022-09-17T18:22:34.671Z,51.73
2022-09-17T18:25:02.961Z,51.82
2022-09-17T18:27:31.207Z,51.79
2022-09-17T18:29:59.438Z,51.93
2022-09-17T18:32:28.147Z,51.92
2022-09-17T18:34:57.732Z,52.10
2022-09-17T18:37:25.973Z,51.93
2022-09-17T18:39:58.919Z,52.11
2022-09-17T18:42:27.656Z,51.87
2022-09-17T18:44:55.864Z,51.92
2022-09-17T18:47:24.205Z,51.79
2022-09-17T18:49:52.430Z,52.09
2022-09-17T18:52:22.076Z,52.02
2022-09-17T18:54:50.362Z,52.02
2022-09-17T18:57:18.638Z,52.24
2022-09-17T18:59:47.238Z,52.23
2022-09-17T19:02:15.593Z,52.17
2022-09-17T19:04:43.932Z,51.98
2022-09-17T19:07:12.199Z,52.04
2022-09-17T19:09:41.831Z,52.18
2022-09-17T19:12:10.172Z,51.95
2022-09-17T19:14:38.405Z,52.28
2022-09-17T19:17:06.747Z,52.22
2022-09-17T19:19:35.036Z,52.13
2022-09-17T19:22:03.356Z,52.14
2022-09-17T19:24:31.585Z,52.38
2022-09-17T19:27:01.696Z,52.38
2022-09-17T19:29:29.963Z,52.35
2022-09-17T19:31:58.197Z,52.63
2022-09-17T19:34:26.493Z,52.73
2022-09-17T19:36:54.811Z,52.73
2022-09-17T19:39:23.103Z,53.12
2022-09-17T19:41:51.359Z,52.96
2022-09-17T19:44:21.190Z,53.07
2022-09-17T19:46:51.200Z,53.40
2022-09-17T19:49:19.918Z,53.42
2022-09-17T19:51:48.240Z,53.29
2022-09-17T19:54:16.495Z,53.29
2022-09-17T19:56:44.706Z,53.30
2022-09-17T19:59:13.102Z,53.54
2022-09-17T20:01:46.079Z,53.48
2022-09-17T20:04:20.294Z,53.48
2022-09-17T20:06:48.544Z,53.72
2022-09-17T20:09:16.823Z,53.49
2022-09-17T20:11:45.069Z,53.73
2022-09-17T20:14:13.946Z,53.76
2022-09-17T20:16:44.987Z,53.55
2022-09-17T20:19:17.067Z,53.50
2022-09-17T20:21:45.326Z,53.52
2022-09-17T20:24:14.024Z,53.51
2022-09-17T20:26:42.287Z,53.42
2022-09-17T20:29:10.767Z,53.22
2022-09-17T20:31:39.774Z,53.37
2022-09-17T20:34:11.677Z,53.35
2022-09-17T20:36:40.328Z,53.41
2022-09-17T20:39:14.196Z,53.14
2022-09-17T20:41:46.422Z,53.49
2022-09-17T20:44:14.680Z,53.25
2022-09-17T20:46:42.985Z,53.40
2022-09-17T20:49:12.674Z,53.41
2022-09-17T20:51:41.309Z,53.55
2022-09-17T20:54:11.226Z,53.65
2022-09-17T20:56:39.466Z,53.77
2022-09-17T20:59:14.306Z,53.75
2022-09-17T21:01:45.007Z,53.87
2022-09-17T21:04:19.008Z,53.93
2022-09-17T21:06:49.159Z,53.88
2022-09-17T21:09:17.389Z,54.12
2022-09-17T21:11:47.795Z,54.25
2022-09-17T21:14:18.085Z,54.25
2022-09-17T21:16:46.869Z,54.06
2022-09-17T21:19:16.948Z,54.48
2022-09-17T21:21:45.506Z,54.46
2022-09-17T21:24:13.763Z,54.58
2022-09-17T21:26:42.092Z,54.66
2022-09-17T21:29:10.603Z,54.45
2022-09-17T21:31:40.602Z,54.73
2022-09-17T21:34:11.769Z,54.65
2022-09-17T21:36:44.236Z,54.59
2022-09-17T21:39:15.612Z,54.70
2022-09-17T21:41:44.188Z,54.84
2022-09-17T21:44:13.120Z,54.75
2022-09-17T21:46:43.034Z,54.87
2022-09-17T21:49:13.417Z,54.65
2022-09-17T21:51:44.258Z,54.63
2022-09-17T21:54:15.765Z,54.75
2022-09-17T21:56:45.017Z,54.71
2022-09-17T21:59:15.324Z,54.50
2022-09-17T22:01:47.045Z,54.55
2022-09-17T22:04:18.362Z,54.59
2022-09-17T22:06:50.034Z,54.76
2022-09-17T22:09:21.424Z,54.50
2022-09-17T22:11:50.069Z,54.65
2022-09-17T22:14:23.308Z,54.55
2022-09-17T22:16:55.082Z,54.57
2022-09-17T22:19:25.083Z,54.58
2022-09-17T22:21:56.646Z,54.47
2022-09-17T22:24:26.199Z,54.53
2022-09-17T22:26:58.052Z,54.33
2022-09-17T22:29:28.498Z,54.47
2022-09-17T22:31:57.231Z,54.46
2022-09-17T22:34:25.940Z,54.41
2022-09-17T22:36:55.581Z,54.49
2022-09-17T22:39:23.879Z,54.41
2022-09-17T22:41:52.454Z,54.37
2022-09-17T22:44:21.854Z,54.36
2022-09-17T22:46:52.042Z,54.38
2022-09-17T22:49:20.942Z,54.33
2022-09-17T22:51:49.225Z,54.31
2022-09-17T22:54:20.134Z,54.22
2022-09-17T22:56:49.191Z,54.40
2022-09-17T22:59:18.739Z,54.46
2022-09-17T23:01:47.175Z,54.40
2022-09-17T23:04:15.484Z,54.51
2022-09-17T23:06:43.709Z,54.55
2022-09-17T23:09:13.985Z,54.27
2022-09-17T23:11:46.662Z,54.42
2022-09-17T23:14:18.284Z,54.33
2022-09-17T23:16:48.890Z,54.42
2022-09-17T23:19:18.739Z,54.32
2022-09-17T23:21:47.672Z,54.39
2022-09-17T23:24:20.229Z,54.37
2022-09-17T23:26:50.798Z,54.23
2022-09-17T23:29:19.707Z,54.26
2022-09-17T23:31:47.978Z,54.20
2022-09-17T23:34:16.328Z,54.13
2022-09-17T23:36:44.860Z,54.21
2022-09-17T23:39:13.280Z,54.27
2022-09-17T23:41:45.414Z,54.08
2022-09-17T23:44:16.492Z,53.93
2022-09-17T23:46:46.063Z,54.24
2022-09-17T23:49:15.971Z,54.10
2022-09-17T23:51:45.587Z,54.05
2022-09-17T23:54:13.891Z,53.74
2022-09-17T23:56:42.286Z,53.73
2022-09-17T23:59:11.666Z,53.75
